createdAt,value
2023-02-15T00:00:24.311Z,29.23
2023-02-15T00:02:50.868Z,25.75
2023-02-15T00:05:17.794Z,27.33
2023-02-15T00:07:44.283Z,28.23
2023-02-15T00:10:12.056Z,30.35
2023-02-15T00:12:38.551Z,25.00
2023-02-15T00:15:05.116Z,26.00
2023-02-15T00:17:31.596Z,27.15
2023-02-15T00:19:58.063Z,27.95
2023-02-15T00:22:24.520Z,29.48
2023-02-15T00:24:51.170Z,27.13
2023-02-15T00:27:17.668Z,27.35
2023-02-15T00:29:44.116Z,26.20
2023-02-15T00:32:13.607Z,26.92
2023-02-15T00:34:40.029Z,25.80
2023-02-15T00:37:06.425Z,26.75
2023-02-15T00:39:32.844Z,31.48
2023-02-15T00:41:59.730Z,26.02
2023-02-15T00:44:26.107Z,28.88
2023-02-15T00:46:52.547Z,24.25
2023-02-15T00:49:18.970Z,27.02
2023-02-15T00:51:45.393Z,25.48
2023-02-15T00:54:11.950Z,28.55
2023-02-15T00:56:38.425Z,22.30
2023-02-15T00:59:04.811Z,28.70
2023-02-15T01:01:31.203Z,22.63
2023-02-15T01:03:57.860Z,25.05
2023-02-15T01:06:24.341Z,29.27
2023-02-15T01:08:50.772Z,31.92
2023-02-15T01:11:23.386Z,26.15
2023-02-15T01:13:54.322Z,28.05
2023-02-15T01:16:21.544Z,32.50
2023-02-15T01:18:48.460Z,29.85
2023-02-15T01:21:16.530Z,29.30
2023-02-15T01:23:43.404Z,23.58
2023-02-15T01:26:09.968Z,25.55
2023-02-15T01:28:36.751Z,27.50
2023-02-15T01:31:10.755Z,27.08
2023-02-15T01:33:37.277Z,23.80
2023-02-15T01:36:03.985Z,29.45
2023-02-15T01:38:30.441Z,32.08
2023-02-15T01:41:18.928Z,28.00
2023-02-15T01:43:46.966Z,31.27
2023-02-15T01:46:14.206Z,30.20
2023-02-15T01:48:51.584Z,30.98
2023-02-15T01:51:21.332Z,28.08
2023-02-15T01:56:20.988Z,26.77
2023-02-15T01:58:48.493Z,29.90
2023-02-15T02:01:14.917Z,31.88
2023-02-15T02:03:44.317Z,31.45
2023-02-15T02:06:10.960Z,25.63
2023-02-15T02:08:37.357Z,30.75
2023-02-15T02:11:13.880Z,24.92
2023-02-15T02:13:44.391Z,28.38
2023-02-15T02:16:13.887Z,38.42
2023-02-15T02:18:47.457Z,34.80
2023-02-15T02:21:33.034Z,32.80
2023-02-15T02:24:05.553Z,33.00
2023-02-15T02:26:58.675Z,23.10
2023-02-15T02:29:43.930Z,27.23
2023-02-15T02:32:32.801Z,33.63
2023-02-15T02:35:02.106Z,27.05
2023-02-15T02:37:31.536Z,34.10
2023-02-15T02:40:10.188Z,32.33
2023-02-15T02:42:45.371Z,32.78
2023-02-15T02:45:14.911Z,27.90
2023-02-15T02:47:44.169Z,32.50
2023-02-15T02:50:15.214Z,29.58
2023-02-15T02:52:48.479Z,31.83
2023-02-15T02:55:30.435Z,31.83
2023-02-15T02:57:56.863Z,35.10
2023-02-15T03:00:24.462Z,33.60
2023-02-15T03:02:53.467Z,35.03
2023-02-15T03:05:22.208Z,38.30
2023-02-15T03:07:51.717Z,30.90
2023-02-15T03:10:19.852Z,35.00
2023-02-15T03:12:46.446Z,32.75
2023-02-15T03:15:12.830Z,25.30
2023-02-15T03:17:42.065Z,26.98
2023-02-15T03:20:11.639Z,28.23
2023-02-15T03:22:42.246Z,33.55
2023-02-15T03:25:26.179Z,34.38
2023-02-15T03:27:55.756Z,36.47
2023-02-15T03:30:23.343Z,27.90
2023-02-15T03:32:50.944Z,32.13
2023-02-15T03:35:17.429Z,34.40
2023-02-15T03:37:55.950Z,32.33
2023-02-15T03:40:43.628Z,33.00
2023-02-15T03:43:19.672Z,30.20
2023-02-15T03:45:55.746Z,29.42
2023-02-15T03:48:32.965Z,35.50
2023-02-15T03:51:21.719Z,33.90
2023-02-15T03:53:52.255Z,33.30
2023-02-15T03:56:18.683Z,34.47
2023-02-15T03:59:03.749Z,30.98
2023-02-15T04:01:54.316Z,34.45
2023-02-15T04:04:25.492Z,31.73
2023-02-15T04:06:52.220Z,32.10
2023-02-15T04:09:36.901Z,36.70
2023-02-15T04:12:03.492Z,30.70
2023-02-15T04:14:48.714Z,36.03
2023-02-15T04:17:15.171Z,36.83
2023-02-15T04:20:03.520Z,34.65
2023-02-15T04:22:48.305Z,37.60
2023-02-15T04:25:14.723Z,31.35
2023-02-15T04:27:49.443Z,32.25
2023-02-15T04:30:17.235Z,33.33
2023-02-15T04:32:43.755Z,32.05
2023-02-15T04:35:10.474Z,36.70
2023-02-15T04:37:36.977Z,31.55
2023-02-15T04:40:06.876Z,38.58
2023-02-15T04:42:33.330Z,39.40
2023-02-15T04:45:00.139Z,38.65
2023-02-15T04:47:26.609Z,30.10
2023-02-15T04:49:53.113Z,37.30
2023-02-15T04:52:19.543Z,34.55
2023-02-15T04:54:46.258Z,36.90
2023-02-15T04:57:12.956Z,33.45
2023-02-15T04:59:39.380Z,34.78
2023-02-15T05:02:05.796Z,43.22
2023-02-15T05:04:32.320Z,37.28
2023-02-15T05:06:58.802Z,39.80
2023-02-15T05:09:25.281Z,39.42
2023-02-15T05:11:51.752Z,43.00
2023-02-15T05:14:18.323Z,35.20
2023-02-15T05:16:44.873Z,36.00
2023-02-15T05:19:11.344Z,37.13
2023-02-15T05:21:40.563Z,39.25
2023-02-15T05:24:27.048Z,39.38
2023-02-15T05:27:12.209Z,37.63
2023-02-15T05:29:38.731Z,43.17
2023-02-15T05:32:05.438Z,41.67
2023-02-15T05:34:35.136Z,39.78
2023-02-15T05:37:01.630Z,37.13
2023-02-15T05:39:28.073Z,40.05
2023-02-15T05:41:54.564Z,40.50
2023-02-15T05:44:21.017Z,39.92
2023-02-15T05:46:47.459Z,39.70
2023-02-15T05:49:13.868Z,38.13
2023-02-15T05:51:40.299Z,41.25
2023-02-15T05:54:06.832Z,47.45
2023-02-15T05:56:33.308Z,38.53
2023-02-15T05:58:59.784Z,45.08
2023-02-15T06:01:26.203Z,42.63
2023-02-15T06:03:53.392Z,41.78
2023-02-15T06:06:19.881Z,48.60
2023-02-15T06:08:46.306Z,44.80
2023-02-15T06:11:12.752Z,44.55
2023-02-15T06:13:41.421Z,41.67
2023-02-15T06:16:08.009Z,49.25
2023-02-15T06:18:34.891Z,41.45
2023-02-15T06:21:01.270Z,46.80
2023-02-15T06:23:27.830Z,43.50
2023-02-15T06:25:54.284Z,40.38
2023-02-15T06:28:20.738Z,49.47
2023-02-15T06:30:47.499Z,39.95
2023-02-15T06:33:13.939Z,48.25
2023-02-15T06:35:40.466Z,48.47
2023-02-15T06:38:06.877Z,46.08
2023-02-15T06:40:33.324Z,46.83
2023-02-15T06:42:59.760Z,37.83
2023-02-15T06:45:26.175Z,42.40
2023-02-15T06:47:52.631Z,43.00
2023-02-15T06:50:19.129Z,45.67
2023-02-15T06:52:45.582Z,42.25
2023-02-15T06:55:12.001Z,43.17
2023-02-15T06:57:40.303Z,43.40
2023-02-15T07:00:07.761Z,36.85
2023-02-15T07:02:34.263Z,50.00
2023-02-15T07:05:00.860Z,44.15
2023-02-15T07:07:27.356Z,41.60
2023-02-15T07:09:53.816Z,38.00
2023-02-15T07:12:39.086Z,33.63
2023-02-15T07:15:07.737Z,37.90
2023-02-15T07:17:36.057Z,42.03
2023-02-15T07:20:13.448Z,42.08
2023-02-15T07:22:39.913Z,40.55
2023-02-15T07:25:07.498Z,43.40
2023-02-15T07:27:34.015Z,45.95
2023-02-15T07:30:00.850Z,42.80
2023-02-15T07:32:31.128Z,39.75
2023-02-15T07:34:58.409Z,36.53
2023-02-15T07:37:25.063Z,39.10
2023-02-15T07:39:51.703Z,40.63
2023-02-15T07:42:18.852Z,36.92
2023-02-15T07:44:45.377Z,38.42
2023-02-15T07:47:12.971Z,39.75
2023-02-15T07:49:39.409Z,42.97
2023-02-15T07:52:08.194Z,40.50
2023-02-15T07:54:34.585Z,36.03
2023-02-15T07:57:01.576Z,38.58
2023-02-15T07:59:28.378Z,43.60
2023-02-15T08:01:57.304Z,35.80
2023-02-15T08:04:24.215Z,37.88
2023-02-15T08:06:52.856Z,38.58
2023-02-15T08:09:22.614Z,36.55
2023-02-15T08:11:49.339Z,39.92
2023-02-15T08:14:17.043Z,44.13
2023-02-15T08:16:43.457Z,38.70
2023-02-15T08:19:28.625Z,36.70
2023-02-15T08:21:59.173Z,41.42
2023-02-15T08:24:26.759Z,36.03
2023-02-15T08:26:53.557Z,41.83
2023-02-15T08:29:23.207Z,40.33
2023-02-15T08:31:50.248Z,37.28
2023-02-15T08:34:18.117Z,40.70
2023-02-15T08:36:46.140Z,38.58
2023-02-15T08:39:15.565Z,44.60
2023-02-15T08:41:46.085Z,38.70
2023-02-15T08:44:12.966Z,43.33
2023-02-15T08:46:40.667Z,40.45
2023-02-15T08:49:07.108Z,39.95
2023-02-15T08:51:34.813Z,45.10
2023-02-15T08:54:02.479Z,43.78
2023-02-15T08:56:30.050Z,47.47
2023-02-15T08:58:57.192Z,44.35
2023-02-15T09:01:25.594Z,43.38
2023-02-15T09:03:55.776Z,42.55
2023-02-15T09:06:23.128Z,48.22
2023-02-15T09:08:50.089Z,43.08
2023-02-15T09:11:23.274Z,47.95
2023-02-15T09:13:51.212Z,51.75
2023-02-15T09:16:20.585Z,46.08
2023-02-15T09:18:47.296Z,44.25
2023-02-15T09:21:15.149Z,49.45
2023-02-15T09:23:42.299Z,44.90
2023-02-15T09:26:10.313Z,49.90
2023-02-15T09:28:37.254Z,38.42
2023-02-15T09:31:11.028Z,42.28
2023-02-15T09:33:38.220Z,42.08
2023-02-15T09:36:05.318Z,42.58
2023-02-15T09:38:31.848Z,48.80
2023-02-15T09:41:18.493Z,45.78
2023-02-15T09:44:00.252Z,41.97
2023-02-15T09:46:41.343Z,42.70
2023-02-15T09:49:28.063Z,45.20
2023-02-15T09:52:07.498Z,49.75
2023-02-15T09:54:42.827Z,44.45
2023-02-15T09:57:21.187Z,43.15
2023-02-15T10:00:11.562Z,47.28
2023-02-15T10:02:55.668Z,49.63
2023-02-15T10:05:40.934Z,48.03
2023-02-15T10:08:07.318Z,42.55
2023-02-15T10:10:47.068Z,44.97
2023-02-15T10:13:16.503Z,49.17
2023-02-15T10:15:46.025Z,40.53
2023-02-15T10:18:17.301Z,42.53
2023-02-15T10:20:43.708Z,40.17
2023-02-15T10:23:22.443Z,48.08
2023-02-15T10:25:55.075Z,40.10
2023-02-15T10:28:24.984Z,44.05
2023-02-15T10:30:52.487Z,41.77
2023-02-15T10:33:18.937Z,40.83
2023-02-15T10:35:48.414Z,45.58
2023-02-15T10:38:22.095Z,38.20
2023-02-15T10:41:00.734Z,39.67
2023-02-15T10:43:46.180Z,31.35
2023-02-15T10:46:18.947Z,33.40
2023-02-15T10:48:48.503Z,33.28
2023-02-15T10:51:27.196Z,41.30
2023-02-15T10:54:00.829Z,36.25
2023-02-15T10:56:30.246Z,38.47
2023-02-15T10:58:59.789Z,32.50
2023-02-15T11:01:26.200Z,32.78
2023-02-15T11:04:11.061Z,38.92
2023-02-15T11:06:42.307Z,35.63
2023-02-15T11:09:16.624Z,37.90
2023-02-15T11:11:46.072Z,40.45
2023-02-15T11:14:18.654Z,33.60
2023-02-15T11:16:50.067Z,36.53
2023-02-15T11:19:31.255Z,39.95
2023-02-15T11:22:03.468Z,43.15
2023-02-15T11:24:31.028Z,45.88
2023-02-15T11:27:00.963Z,40.22
2023-02-15T11:29:47.341Z,45.83
2023-02-15T11:32:13.868Z,46.13
2023-02-15T11:34:51.009Z,41.53
2023-02-15T11:37:19.361Z,39.53
2023-02-15T11:39:46.598Z,33.40
2023-02-15T11:42:15.453Z,35.30
2023-02-15T11:45:02.032Z,35.22
2023-02-15T11:47:28.756Z,40.97
2023-02-15T11:49:55.175Z,36.45
2023-02-15T11:52:21.662Z,31.30
2023-02-15T11:54:51.109Z,40.17
2023-02-15T11:57:34.716Z,35.15
2023-02-15T12:00:28.462Z,34.83
2023-02-15T12:02:58.493Z,32.38
2023-02-15T12:05:25.922Z,39.38
2023-02-15T12:07:52.415Z,36.67
2023-02-15T12:10:22.947Z,33.90
2023-02-15T12:12:49.534Z,33.05
2023-02-15T12:15:30.590Z,39.20
2023-02-15T12:17:57.210Z,34.97
2023-02-15T12:20:30.510Z,34.35
2023-02-15T12:23:08.158Z,34.25
2023-02-15T12:25:38.834Z,38.80
2023-02-15T12:28:16.788Z,37.80
2023-02-15T12:30:43.777Z,37.45
2023-02-15T12:33:19.251Z,34.20
2023-02-15T12:35:52.153Z,31.70
2023-02-15T12:38:18.532Z,30.65
2023-02-15T12:40:57.094Z,31.92
2023-02-15T12:43:33.079Z,33.95
2023-02-15T12:46:19.903Z,30.02
2023-02-15T12:48:46.453Z,37.08
2023-02-15T12:51:15.380Z,34.70
2023-02-15T12:53:44.960Z,34.00
2023-02-15T12:56:12.075Z,34.60
2023-02-15T12:58:39.686Z,36.45
2023-02-15T13:01:16.748Z,36.70
2023-02-15T13:03:49.480Z,34.55
2023-02-15T13:06:17.979Z,29.88
2023-02-15T13:08:49.499Z,30.20
2023-02-15T13:11:21.826Z,33.83
2023-02-15T13:13:54.124Z,37.70
2023-02-15T13:16:25.845Z,36.47
2023-02-15T13:18:53.056Z,35.67
2023-02-15T13:21:21.387Z,39.63
2023-02-15T13:24:00.010Z,34.35
2023-02-15T13:26:27.784Z,34.65
2023-02-15T13:28:57.019Z,30.70
2023-02-15T13:31:28.939Z,31.42
2023-02-15T13:34:11.046Z,34.05
2023-02-15T13:36:42.325Z,39.70
2023-02-15T13:39:24.079Z,35.10
2023-02-15T13:42:09.136Z,39.22
2023-02-15T13:44:54.494Z,35.28
2023-02-15T13:47:38.362Z,39.33
2023-02-15T13:50:15.535Z,39.10
2023-02-15T13:52:47.191Z,32.95
2023-02-15T13:55:48.876Z,33.97
2023-02-15T13:58:15.404Z,36.17
2023-02-15T14:00:44.952Z,34.70
2023-02-15T14:03:16.792Z,34.47
2023-02-15T14:05:55.498Z,35.35
2023-02-15T14:08:35.949Z,32.00
2023-02-15T14:11:02.480Z,33.75
2023-02-15T14:13:41.382Z,33.70
2023-02-15T14:16:21.225Z,33.33
2023-02-15T14:19:02.992Z,38.38
2023-02-15T14:21:35.293Z,31.63
2023-02-15T14:24:13.924Z,32.75
2023-02-15T14:26:46.511Z,33.75
2023-02-15T14:29:25.639Z,35.25
2023-02-15T14:32:04.388Z,37.45
2023-02-15T14:34:48.815Z,30.65
2023-02-15T14:37:17.581Z,35.50
2023-02-15T14:40:16.692Z,35.58
2023-02-15T14:43:01.408Z,32.90
2023-02-15T14:45:35.121Z,29.95
2023-02-15T14:48:04.984Z,37.90
2023-02-15T14:50:31.430Z,26.03
2023-02-15T14:53:28.784Z,39.00
2023-02-15T14:56:10.402Z,36.75
2023-02-15T14:59:00.160Z,36.17
2023-02-15T15:01:34.483Z,31.80
2023-02-15T15:04:03.181Z,39.30
2023-02-15T15:06:34.012Z,31.85
2023-02-15T15:11:42.486Z,35.33
2023-02-15T15:14:09.379Z,37.15
2023-02-15T15:16:38.542Z,37.58
2023-02-15T15:19:07.375Z,35.80
2023-02-15T15:21:51.848Z,34.97
2023-02-15T15:24:37.002Z,31.00
2023-02-15T15:27:22.392Z,35.25
2023-02-15T15:29:48.817Z,28.08
2023-02-15T15:32:19.021Z,37.72
2023-02-15T15:35:03.979Z,38.03
2023-02-15T15:37:43.944Z,35.10
2023-02-15T15:40:29.237Z,35.70
2023-02-15T15:43:10.930Z,40.80
2023-02-15T15:45:52.752Z,32.70
2023-02-15T15:48:39.706Z,33.15
2023-02-15T15:51:15.800Z,35.25
2023-02-15T15:53:46.782Z,41.65
2023-02-15T15:56:15.106Z,40.50
2023-02-15T15:58:43.967Z,34.95
2023-02-15T16:01:12.485Z,34.17
2023-02-15T16:03:39.236Z,41.90
2023-02-15T16:06:06.435Z,39.95
2023-02-15T16:08:37.342Z,40.97
2023-02-15T16:11:12.154Z,41.97
2023-02-15T16:13:44.793Z,30.88
2023-02-15T16:16:13.618Z,39.20
2023-02-15T16:18:43.327Z,30.70
2023-02-15T16:21:15.046Z,39.47
2023-02-15T16:24:01.941Z,38.60
2023-02-15T16:26:40.752Z,38.22
2023-02-15T16:29:17.303Z,43.17
2023-02-15T16:31:43.977Z,47.10
2023-02-15T16:34:16.960Z,37.63
2023-02-15T16:36:43.375Z,36.63
2023-02-15T16:39:33.006Z,32.67
2023-02-15T16:42:02.877Z,41.20
2023-02-15T16:44:33.825Z,41.90
2023-02-15T16:47:00.469Z,48.00
2023-02-15T16:49:29.801Z,42.05
2023-02-15T16:52:03.763Z,38.42
2023-02-15T16:54:32.282Z,46.58
2023-02-15T16:56:59.003Z,38.08
2023-02-15T16:59:25.931Z,35.80
2023-02-15T17:01:52.930Z,42.83
2023-02-15T17:04:22.330Z,40.95
2023-02-15T17:07:14.588Z,33.60
2023-02-15T17:09:49.964Z,41.50
2023-02-15T17:12:36.309Z,39.67
2023-02-15T17:15:03.230Z,37.95
2023-02-15T17:17:31.940Z,42.50
2023-02-15T17:19:58.676Z,40.67
2023-02-15T17:22:31.875Z,46.92
2023-02-15T17:24:59.554Z,42.60
2023-02-15T17:27:26.893Z,46.10
2023-02-15T17:29:57.317Z,37.95
2023-02-15T17:32:25.669Z,45.20
2023-02-15T17:35:05.048Z,43.80
2023-02-15T17:37:37.514Z,47.30
2023-02-15T17:40:19.222Z,45.40
2023-02-15T17:42:45.638Z,45.97
2023-02-15T17:45:13.686Z,49.53
2023-02-15T17:47:41.677Z,49.67
2023-02-15T17:50:09.343Z,49.33
2023-02-15T17:52:36.971Z,49.72
2023-02-15T17:55:31.828Z,47.17
2023-02-15T17:57:58.202Z,49.83
2023-02-15T18:00:43.294Z,48.50
2023-02-15T18:03:31.485Z,41.95
2023-02-15T18:06:17.280Z,48.13
2023-02-15T18:09:02.008Z,45.08
2023-02-15T18:11:40.646Z,49.05
2023-02-15T18:14:08.251Z,41.72
2023-02-15T18:16:36.488Z,45.88
2023-02-15T18:19:04.884Z,42.80
2023-02-15T18:21:32.765Z,42.13
2023-02-15T18:24:02.240Z,50.22
2023-02-15T18:26:30.338Z,46.42
2023-02-15T18:28:56.781Z,39.47
2023-02-15T18:31:23.845Z,51.67
2023-02-15T18:33:58.175Z,36.50
2023-02-15T18:36:28.128Z,39.55
2023-02-15T18:38:55.571Z,49.83
2023-02-15T18:41:22.846Z,38.92
2023-02-15T18:43:50.120Z,42.70
2023-02-15T18:46:17.318Z,44.78
2023-02-15T18:48:44.417Z,37.13
2023-02-15T18:51:21.266Z,41.60
2023-02-15T18:53:48.744Z,45.78
2023-02-15T18:56:16.424Z,33.63
2023-02-15T18:58:43.035Z,38.72
2023-02-15T19:01:18.990Z,41.53
2023-02-15T19:03:46.370Z,36.40
2023-02-15T19:06:13.597Z,34.33
2023-02-15T19:08:40.226Z,34.00
2023-02-15T19:11:13.223Z,40.70
2023-02-15T19:13:39.685Z,37.90
2023-02-15T19:16:06.378Z,36.08
2023-02-15T19:18:32.807Z,30.73
2023-02-15T19:20:59.268Z,32.97
2023-02-15T19:23:26.700Z,32.85
2023-02-15T19:25:53.600Z,33.58
2023-02-15T19:28:23.536Z,27.70
2023-02-15T19:30:50.022Z,31.17
2023-02-15T19:33:18.067Z,32.85
2023-02-15T19:35:48.773Z,33.92
2023-02-15T19:38:17.773Z,38.13
2023-02-15T19:40:44.547Z,36.03
2023-02-15T19:43:16.422Z,35.05
2023-02-15T19:45:42.891Z,40.53
2023-02-15T19:48:17.035Z,31.70
2023-02-15T19:50:46.054Z,38.40
2023-02-15T19:53:20.944Z,30.63
2023-02-15T19:55:51.027Z,29.95
2023-02-15T19:58:19.153Z,38.30
2023-02-15T20:00:49.604Z,33.58
2023-02-15T20:03:16.247Z,33.03
2023-02-15T20:05:43.255Z,38.80
2023-02-15T20:08:17.491Z,33.47
2023-02-15T20:10:45.369Z,37.25
2023-02-15T20:13:15.882Z,33.22
2023-02-15T20:15:42.549Z,32.60
2023-02-15T20:18:09.485Z,34.42
2023-02-15T20:20:50.175Z,33.25
2023-02-15T20:23:24.779Z,32.40
2023-02-15T20:25:51.221Z,28.75
2023-02-15T20:28:19.520Z,33.28
2023-02-15T20:30:46.441Z,34.97
2023-02-15T20:33:13.511Z,36.55
2023-02-15T20:35:40.288Z,37.00
2023-02-15T20:38:06.950Z,33.30
2023-02-15T20:40:34.742Z,40.72
2023-02-15T20:43:01.790Z,40.38
2023-02-15T20:45:31.829Z,40.83
2023-02-15T20:47:58.943Z,32.17
2023-02-15T20:50:26.791Z,38.42
2023-02-15T20:52:54.033Z,39.00
2023-02-15T20:55:21.779Z,48.80
2023-02-15T20:57:48.438Z,45.22
2023-02-15T21:00:25.332Z,43.80
2023-02-15T21:02:56.394Z,44.97
2023-02-15T21:05:24.337Z,46.33
2023-02-15T21:07:51.337Z,59.35
2023-02-15T21:10:20.760Z,53.60
2023-02-15T21:12:47.927Z,57.97
2023-02-15T21:15:34.060Z,56.80
2023-02-15T21:18:02.069Z,49.67
2023-02-15T21:20:30.020Z,67.57
2023-02-15T21:22:57.915Z,52.88
2023-02-15T21:25:29.783Z,61.47
2023-02-15T21:27:56.393Z,65.00
2023-02-15T21:30:26.306Z,67.70
2023-02-15T21:32:52.881Z,68.40
2023-02-15T21:35:20.048Z,70.07
2023-02-15T21:37:48.444Z,60.65
2023-02-15T21:40:15.153Z,74.53
2023-02-15T21:43:00.501Z,62.95
2023-02-15T21:45:45.695Z,71.55
2023-02-15T21:48:12.175Z,67.50
2023-02-15T21:50:56.982Z,78.78
2023-02-15T21:53:46.026Z,87.10
2023-02-15T21:56:20.195Z,85.18
2023-02-15T21:58:46.899Z,85.43
2023-02-15T22:01:20.375Z,91.63
2023-02-15T22:03:46.985Z,82.70
2023-02-15T22:06:16.246Z,85.95
2023-02-15T22:08:42.959Z,84.18
2023-02-15T22:11:13.686Z,81.88
2023-02-15T22:13:40.351Z,87.78
2023-02-15T22:16:06.856Z,78.40
2023-02-15T22:18:34.166Z,92.78
2023-02-15T22:21:00.787Z,84.82
2023-02-15T22:23:27.362Z,79.45
2023-02-15T22:25:56.162Z,83.65
2023-02-15T22:28:33.726Z,80.70
2023-02-15T22:31:00.660Z,73.20
2023-02-15T22:33:32.244Z,71.38
2023-02-15T22:35:59.108Z,73.65
2023-02-15T22:38:25.631Z,59.53
2023-02-15T22:40:53.056Z,75.15
2023-02-15T22:43:29.342Z,73.40
2023-02-15T22:45:59.751Z,71.00
2023-02-15T22:48:26.237Z,58.38
2023-02-15T22:50:52.647Z,62.75
2023-02-15T22:53:19.091Z,71.47
2023-02-15T22:55:45.819Z,63.53
2023-02-15T22:58:20.664Z,60.70
2023-02-15T23:00:47.128Z,63.10
2023-02-15T23:03:18.188Z,61.45
2023-02-15T23:05:44.967Z,63.92
2023-02-15T23:08:11.811Z,62.88
2023-02-15T23:10:39.246Z,65.43
2023-02-15T23:13:25.793Z,57.85
2023-02-15T23:15:53.958Z,62.80
2023-02-15T23:18:33.866Z,64.15
2023-02-15T23:21:00.294Z,59.17
2023-02-15T23:23:41.753Z,55.05
2023-02-15T23:26:27.357Z,61.70
2023-02-15T23:28:54.204Z,48.17
2023-02-15T23:31:34.409Z,52.25
2023-02-15T23:34:02.615Z,53.58
2023-02-15T23:36:31.814Z,52.83
2023-02-15T23:38:59.431Z,53.05
2023-02-15T23:41:27.270Z,52.40
2023-02-15T23:43:56.302Z,52.75
2023-02-15T23:46:28.059Z,49.00
2023-02-15T23:48:55.126Z,53.58
2023-02-15T23:51:24.090Z,56.85
2023-02-15T23:53:50.852Z,51.50
2023-02-15T23:56:17.430Z,42.83
2023-02-15T23:58:44.976Z,50.65
